Time;durP1;ratioP1;P1;durP2;ratioP2;P2;SDS_P1;SDS_P2;PMS_P1;PMS_P2;Temp;Humidity;BMP_temperature;BMP_pressure;BME280_temperature;BME280_humidity;BME280_pressure;Samples;Min_cycle;Max_cycle;Signal;HPM_P1;HPM_P2
2022/04/25 00:00:58;;;;;;;22.17;6.80;;;;;;;13.05;90.38;96386.56;5087098;28;20056;-65
2022/04/25 00:03:25;;;;;;;14.65;7.53;;;;;;;13.06;90.26;96391.72;5086951;28;20511;-57
2022/04/25 00:05:52;;;;;;;20.58;8.25;;;;;;;12.98;90.29;96387.34;5086682;28;20483;-58
2022/04/25 00:08:19;;;;;;;20.48;7.45;;;;;;;12.90;90.59;96404.47;5085019;28;20051;-58
2022/04/25 00:10:46;;;;;;;17.52;7.75;;;;;;;12.81;91.23;96379.84;5085543;28;20051;-60
2022/04/25 00:13:14;;;;;;;20.65;8.68;;;;;;;12.65;90.75;96359.22;5087207;28;20055;-64
2022/04/25 00:15:41;;;;;;;15.82;7.32;;;;;;;12.59;92.64;96375.53;5085772;28;20044;-58
2022/04/25 00:18:08;;;;;;;17.63;6.32;;;;;;;12.19;92.56;96309.31;5087081;28;20060;-65
2022/04/25 00:20:36;;;;;;;18.88;7.78;;;;;;;12.28;94.56;96345.00;5086526;28;20058;-64
2022/04/25 00:23:05;;;;;;;18.40;7.32;;;;;;;12.46;94.78;96363.25;5086972;28;20047;-64
2022/04/25 00:25:35;;;;;;;25.02;7.22;;;;;;;12.22;95.79;96347.38;5085186;28;20051;-65
2022/04/25 00:28:04;;;;;;;19.67;6.28;;;;;;;12.30;95.43;96365.63;5087099;28;20052;-65
2022/04/25 00:30:31;;;;;;;23.45;6.20;;;;;;;12.38;93.62;96364.44;5086507;28;20501;-58
2022/04/25 00:32:59;;;;;;;18.20;7.38;;;;;;;12.37;93.22;96365.63;5086593;28;20059;-58
2022/04/25 00:35:26;;;;;;;16.38;6.20;;;;;;;12.11;94.99;96363.25;5086503;28;20083;-59
2022/04/25 00:37:53;;;;;;;15.98;5.53;;;;;;;12.01;96.53;96364.06;5086597;28;20105;-57
2022/04/25 00:40:22;;;;;;;20.02;6.25;;;;;;;12.07;96.75;96373.59;5086407;28;20062;-58
2022/04/25 00:42:49;;;;;;;13.65;5.90;;;;;;;12.06;97.16;96372.00;5086857;28;20762;-58
2022/04/25 00:45:16;;;;;;;12.95;6.13;;;;;;;12.02;96.81;96360.09;5086277;28;20060;-58
2022/04/25 00:47:44;;;;;;;13.23;5.57;;;;;;;12.05;97.00;96359.28;5084859;28;20437;-57
2022/04/25 00:50:13;;;;;;;20.63;5.20;;;;;;;12.14;96.43;96356.91;5086021;28;20526;-64
2022/04/25 00:52:40;;;;;;;17.00;5.88;;;;;;;11.76;95.58;96282.78;5084837;28;20055;-57
2022/04/25 00:55:09;;;;;;;14.77;5.25;;;;;;;11.96;94.44;96306.16;5086228;28;20058;-58
2022/04/25 00:57:37;;;;;;;17.40;4.88;;;;;;;11.66;94.23;96241.97;5087075;28;20129;-57
2022/04/25 01:00:10;;;;;;;14.23;5.22;;;;;;;9.77;94.70;95960.75;5085009;28;20056;-59
2022/04/25 01:02:38;;;;;;;22.65;5.38;;;;;;;11.66;94.34;96258.59;5086648;28;20052;-63
2022/04/25 01:05:07;;;;;;;16.77;5.15;;;;;;;12.31;93.70;96367.25;5086162;28;20512;-64
2022/04/25 01:07:35;;;;;;;10.90;4.95;;;;;;;11.92;93.64;96308.94;5085872;28;20052;-64
2022/04/25 01:10:04;;;;;;;12.57;4.63;;;;;;;12.25;92.83;96357.69;5086112;28;20063;-64
2022/04/25 01:12:30;;;;;;;9.93;4.70;;;;;;;12.22;92.99;96347.38;5086170;28;20056;-63
2022/04/25 01:15:19;;;;;;;16.13;4.80;;;;;;;12.17;93.26;96358.91;5086163;28;20514;-59
2022/04/25 01:17:46;;;;;;;12.02;4.63;;;;;;;12.16;94.56;96351.75;5086291;28;20056;-57
2022/04/25 01:20:12;;;;;;;11.57;4.88;;;;;;;12.22;95.43;96352.94;5085760;28;20052;-59
2022/04/25 01:22:42;;;;;;;16.05;4.88;;;;;;;12.30;95.31;96354.53;5086121;28;20059;-57
2022/04/25 01:27:55;;;;;;;10.63;5.47;;;;;;;12.36;93.92;96347.38;5086254;28;20048;-57
2022/04/25 01:30:22;;;;;;;15.00;5.45;;;;;;;12.30;94.14;96348.97;5086227;28;20056;-57
2022/04/25 01:32:48;;;;;;;11.70;5.00;;;;;;;12.29;94.21;96350.16;5085443;28;20502;-59
2022/04/25 01:35:15;;;;;;;14.57;5.25;;;;;;;12.29;94.68;96347.41;5083866;28;20102;-57
2022/04/25 01:37:42;;;;;;;18.58;5.68;;;;;;;12.25;94.35;96343.81;5085572;28;20056;-64
2022/04/25 01:40:09;;;;;;;14.80;5.15;;;;;;;12.12;94.98;96337.09;5085372;28;20051;-58
2022/04/25 01:42:36;;;;;;;22.27;7.10;;;;;;;10.67;93.96;96106.06;5085497;28;20060;-58
2022/04/25 01:45:03;;;;;;;17.65;6.32;;;;;;;12.05;94.97;96342.66;5085049;28;20055;-59
2022/04/25 01:47:29;;;;;;;14.15;5.38;;;;;;;12.14;95.16;96331.91;5084978;28;20063;-65
2022/04/25 01:49:56;;;;;;;11.18;5.40;;;;;;;11.45;94.69;96225.28;5085143;28;20055;-58
2022/04/25 01:52:31;;;;;;;18.77;5.00;;;;;;;12.09;94.90;96332.34;5085291;28;20056;-60
2022/04/25 01:54:59;;;;;;;9.55;4.70;;;;;;;11.50;94.76;96244.31;5085253;28;20093;-59
2022/04/25 01:57:26;;;;;;;17.55;5.78;;;;;;;12.09;95.19;96321.25;5085102;28;20095;-58
2022/04/25 01:59:53;;;;;;;13.60;5.22;;;;;;;11.96;94.97;96325.59;5084695;28;20044;-58
2022/04/25 02:02:22;;;;;;;26.13;6.05;;;;;;;11.88;95.35;96316.50;5084532;28;20044;-64
2022/04/25 02:04:50;;;;;;;13.82;5.97;;;;;;;11.93;95.17;96318.84;5083338;28;20570;-58
2022/04/25 02:07:17;;;;;;;9.10;5.03;;;;;;;11.18;96.17;96219.31;5083217;28;20510;-65
2022/04/25 02:09:43;;;;;;;19.60;5.63;;;;;;;11.44;96.24;96279.16;5083083;28;20506;-58
2022/04/25 02:12:10;;;;;;;15.45;6.18;;;;;;;11.40;96.40;96245.09;5083679;28;20052;-58
2022/04/25 02:14:39;;;;;;;16.55;4.93;;;;;;;11.88;95.99;96310.94;5084193;28;20043;-59
2022/04/25 02:17:05;;;;;;;12.18;4.78;;;;;;;11.53;94.81;96254.59;5084353;28;20055;-58
2022/04/25 02:19:35;;;;;;;10.50;5.70;;;;;;;11.62;93.88;96263.31;5084730;28;20418;-58
2022/04/25 02:22:02;;;;;;;11.88;5.28;;;;;;;11.79;95.34;96321.63;5082999;28;20082;-59
2022/04/25 02:24:28;;;;;;;9.80;5.03;;;;;;;11.77;95.58;96320.44;5084289;28;20052;-58
2022/04/25 02:26:56;;;;;;;10.70;5.65;;;;;;;11.88;94.89;96333.13;5084475;28;20148;-58
2022/04/25 02:29:22;;;;;;;13.13;5.10;;;;;;;11.81;94.73;96321.22;5084054;28;20655;-64
2022/04/25 02:31:49;;;;;;;11.73;4.78;;;;;;;11.77;95.28;96314.88;5083902;28;20058;-65
2022/04/25 02:34:16;;;;;;;13.95;4.85;;;;;;;11.63;96.19;96320.44;5084037;28;20055;-64
2022/04/25 02:36:43;;;;;;;11.75;4.60;;;;;;;11.62;96.47;96313.25;5082731;28;20468;-65
2022/04/25 02:39:09;;;;;;;10.35;4.47;;;;;;;11.24;97.47;96270.41;5084182;28;20476;-58
2022/04/25 02:41:36;;;;;;;7.03;4.53;;;;;;;11.61;96.22;96311.66;5084048;28;20048;-58
2022/04/25 02:44:03;;;;;;;10.38;4.95;;;;;;;11.15;96.50;96238.72;5082665;28;20048;-58
2022/04/25 02:46:29;;;;;;;13.60;4.72;;;;;;;11.15;96.50;96244.25;5083904;28;20051;-61
2022/04/25 02:48:56;;;;;;;11.25;5.43;;;;;;;11.46;97.20;96310.06;5084341;28;20048;-65
2022/04/25 02:51:23;;;;;;;12.30;5.10;;;;;;;11.35;97.62;96314.81;5082582;28;20048;-64
2022/04/25 02:53:50;;;;;;;15.70;5.47;;;;;;;11.40;97.57;96311.63;5083750;28;20136;-64
2022/04/25 02:56:17;;;;;;;16.08;5.18;;;;;;;11.40;97.32;96306.88;5083916;28;20048;-64
2022/04/25 02:58:44;;;;;;;11.93;5.00;;;;;;;11.33;97.23;96308.84;5082136;28;20498;-65
2022/04/25 03:01:11;;;;;;;14.85;5.35;;;;;;;10.93;96.98;96248.16;5083394;28;20047;-64
2022/04/25 03:03:38;;;;;;;11.80;4.80;;;;;;;11.32;96.94;96326.66;5083996;28;20063;-64
2022/04/25 03:06:08;;;;;;;17.55;5.50;;;;;;;11.42;96.13;96312.84;5082562;28;20052;-62
2022/04/25 03:08:36;;;;;;;11.90;5.38;;;;;;;11.46;95.28;96315.63;5083464;28;20514;-64
2022/04/25 03:11:05;;;;;;;27.33;9.63;;;;;;;11.49;94.19;96321.16;5081982;28;20458;-64
2022/04/25 03:13:34;;;;;;;17.70;6.32;;;;;;;11.46;93.18;96315.63;5083593;28;20143;-64
2022/04/25 03:16:05;;;;;;;12.85;4.80;;;;;;;11.05;93.92;96264.44;5082274;28;20044;-64
2022/04/25 03:18:34;;;;;;;11.57;5.13;;;;;;;11.18;95.52;96287.81;5083740;28;20060;-64
2022/04/25 03:21:01;;;;;;;8.65;5.40;;;;;;;11.28;95.96;96314.78;5083816;28;20051;-63
2022/04/25 03:23:28;;;;;;;8.57;4.70;;;;;;;11.14;97.08;96314.75;5083046;28;20051;-63
2022/04/25 03:25:55;;;;;;;16.05;6.18;;;;;;;11.11;97.49;96310.00;5087506;28;20051;-65
2022/04/25 03:28:22;;;;;;;11.73;5.03;;;;;;;11.16;97.46;96318.69;5087966;28;20052;-64
2022/04/25 03:30:48;;;;;;;14.50;6.47;;;;;;;11.28;96.61;96304.50;5087486;28;20433;-59
2022/04/25 03:33:15;;;;;;;14.52;5.30;;;;;;;10.96;95.54;96258.47;5086644;28;20097;-57
2022/04/25 03:35:47;;;;;;;8.18;4.95;;;;;;;11.26;96.26;96306.06;5087643;28;20661;-58
2022/04/25 03:38:17;;;;;;;17.92;5.70;;;;;;;11.03;96.77;96286.22;5086507;28;20064;-58
2022/04/25 03:40:45;;;;;;;13.93;6.13;;;;;;;11.12;97.33;96301.28;5087568;28;20480;-58
2022/04/25 03:43:14;;;;;;;17.10;6.13;;;;;;;11.08;97.57;96311.53;5086299;28;20051;-59
2022/04/25 03:45:41;;;;;;;12.55;7.32;;;;;;;11.15;97.54;96317.13;5086169;28;20097;-58
2022/04/25 03:48:08;;;;;;;15.55;7.82;;;;;;;11.31;95.08;96302.91;5085842;28;20044;-64
2022/04/25 03:50:35;;;;;;;11.88;7.60;;;;;;;11.40;94.92;96311.63;5085782;28;20096;-64
2022/04/25 03:53:07;;;;;;;14.52;7.65;;;;;;;11.52;92.27;96316.81;5085504;28;20498;-65
2022/04/25 03:58:19;;;;;;;20.23;8.90;;;;;;;11.55;90.83;96329.91;5087401;28;20052;-60
2022/04/25 04:00:46;;;;;;;22.60;10.75;;;;;;;11.37;91.47;96306.88;5087017;28;20052;-58
2022/04/25 04:03:14;;;;;;;19.95;10.52;;;;;;;11.64;91.10;96327.56;5085460;28;20051;-65
2022/04/25 04:05:42;;;;;;;19.23;10.07;;;;;;;11.64;91.66;96308.13;5087082;28;20048;-65
2022/04/25 04:08:09;;;;;;;18.52;7.70;;;;;;;11.72;91.76;96334.69;5086568;28;20063;-66
2022/04/25 04:10:36;;;;;;;16.35;6.25;;;;;;;11.88;91.09;96326.78;5087189;28;20044;-59
2022/04/25 04:13:05;;;;;;;12.68;6.43;;;;;;;12.00;90.80;96329.16;5087127;28;20059;-64
2022/04/25 04:15:32;;;;;;;11.65;6.22;;;;;;;12.07;89.05;96326.38;5086695;28;20134;-64
2022/04/25 04:17:59;;;;;;;17.60;5.63;;;;;;;12.24;88.05;96328.34;5087124;28;20064;-64
2022/04/25 04:20:26;;;;;;;13.77;5.88;;;;;;;12.23;86.61;96321.22;5086647;28;20071;-60
2022/04/25 04:22:52;;;;;;;12.05;5.85;;;;;;;12.24;86.59;96311.69;5087017;28;20080;-63
2022/04/25 04:25:20;;;;;;;13.10;4.50;;;;;;;12.33;86.50;96317.63;5086632;28;20063;-64
2022/04/25 04:27:48;;;;;;;10.50;5.00;;;;;;;12.42;85.71;96311.66;5085275;28;20052;-58
2022/04/25 04:30:15;;;;;;;13.10;6.72;;;;;;;12.46;84.94;96318.81;5084869;28;20083;-57
2022/04/25 04:32:42;;;;;;;26.27;8.55;;;;;;;12.60;84.12;96321.53;5086617;28;20059;-64
2022/04/25 04:35:11;;;;;;;17.92;7.97;;;;;;;12.60;84.14;96318.75;5084323;28;20052;-61
2022/04/25 04:37:39;;;;;;;15.43;5.68;;;;;;;12.76;83.16;96324.69;5086028;28;20057;-58
2022/04/25 04:42:54;;;;;;;16.98;5.72;;;;;;;12.55;84.01;96269.16;5086571;28;20052;-64
2022/04/25 04:45:21;;;;;;;11.70;5.00;;;;;;;12.90;83.28;96310.72;5086121;28;20048;-64
2022/04/25 04:47:48;;;;;;;11.63;5.22;;;;;;;13.01;83.65;96311.50;5086200;28;20070;-58
2022/04/25 04:50:16;;;;;;;10.48;4.78;;;;;;;13.09;83.09;96315.84;5086336;28;20075;-60
2022/04/25 04:52:46;;;;;;;11.27;6.13;;;;;;;13.08;83.65;96310.69;5086265;28;20052;-59
2022/04/25 04:55:13;;;;;;;10.45;5.95;;;;;;;13.21;82.93;96309.84;5086027;28;20048;-58
2022/04/25 04:57:40;;;;;;;14.27;5.50;;;;;;;13.20;83.01;96313.81;5086357;28;20059;-58
2022/04/25 05:00:13;;;;;;;14.48;5.75;;;;;;;13.38;82.98;96300.59;5084539;28;20059;-59
2022/04/25 05:02:40;;;;;;;14.23;6.03;;;;;;;13.35;82.17;96281.94;5086569;28;20192;-65
2022/04/25 05:05:08;;;;;;;9.65;6.20;;;;;;;12.93;80.78;96175.72;5085704;28;20060;-65
2022/04/25 05:07:35;;;;;;;11.73;6.03;;;;;;;13.29;80.07;96200.09;5085701;28;20048;-66
2022/04/25 05:10:03;;;;;;;9.50;4.65;;;;;;;13.87;79.41;96293.09;5086502;28;20063;-57
2022/04/25 05:12:30;;;;;;;9.68;4.57;;;;;;;13.68;79.24;96228.44;5085762;28;20074;-57
2022/04/25 05:14:58;;;;;;;8.27;4.47;;;;;;;14.04;78.96;96261.53;5087900;27;20124;-60
2022/04/25 05:17:24;;;;;;;11.68;4.68;;;;;;;13.47;78.35;96145.13;5137063;27;20059;-58
2022/04/25 05:19:51;;;;;;;13.18;4.80;;;;;;;14.38;78.51;96254.06;5126204;27;20058;-64
2022/04/25 05:22:18;;;;;;;9.00;4.40;;;;;;;14.54;78.22;96259.88;5126447;27;20047;-65
2022/04/25 05:24:44;;;;;;;11.35;5.00;;;;;;;14.56;77.86;96249.06;5126958;27;20536;-59
2022/04/25 05:27:11;;;;;;;9.55;4.38;;;;;;;15.01;77.20;96270.06;5126726;27;20059;-65
2022/04/25 05:29:37;;;;;;;9.30;4.68;;;;;;;15.06;75.34;96277.97;5126396;27;20491;-58
2022/04/25 05:32:05;;;;;;;10.68;4.75;;;;;;;15.40;73.87;96275.94;5126261;27;20062;-64
2022/04/25 05:34:37;;;;;;;6.82;4.68;;;;;;;15.56;73.26;96300.41;5126369;27;20081;-60
2022/04/25 05:37:04;;;;;;;12.55;5.35;;;;;;;15.45;75.86;96289.41;5126160;27;20087;-60
2022/04/25 05:39:32;;;;;;;11.15;4.50;;;;;;;15.44;74.32;96287.84;5126265;27;20531;-64
2022/04/25 05:42:03;;;;;;;8.23;3.90;;;;;;;15.33;74.23;96284.38;5126187;27;20049;-64
2022/04/25 05:44:30;;;;;;;7.15;4.35;;;;;;;15.54;74.06;96286.88;5125656;27;20062;-58
2022/04/25 05:46:57;;;;;;;10.10;4.65;;;;;;;15.25;74.28;96291.28;5114149;27;20052;-66
2022/04/25 05:52:10;;;;;;;12.63;5.78;;;;;;;15.79;71.57;96298.47;5105744;28;20056;-60
2022/04/25 05:54:46;;;;;;;8.32;5.07;;;;;;;15.86;71.62;96303.97;5105490;28;20055;-59
2022/04/25 05:57:13;;;;;;;9.13;4.90;;;;;;;16.02;71.94;96301.31;5105044;28;20109;-57
2022/04/25 05:59:40;;;;;;;9.65;5.53;;;;;;;16.23;71.33;96300.94;5103531;28;20047;-64
2022/04/25 06:02:07;;;;;;;7.50;4.95;;;;;;;16.16;71.38;96295.50;5105763;28;20082;-64
2022/04/25 06:04:34;;;;;;;13.68;5.10;;;;;;;16.51;70.04;96305.28;5105402;28;20047;-64
2022/04/25 06:07:04;;;;;;;13.00;5.55;;;;;;;16.72;68.57;96292.94;5104682;28;20436;-63
2022/04/25 06:09:31;;;;;;;11.15;5.32;;;;;;;16.61;69.67;96287.53;5102761;28;20048;-63
2022/04/25 06:11:58;;;;;;;10.15;5.53;;;;;;;16.92;68.17;96265.75;5104680;28;20047;-65
2022/04/25 06:14:24;;;;;;;12.13;5.22;;;;;;;17.29;66.89;96293.38;5104403;27;20054;-62
2022/04/25 06:16:51;;;;;;;14.90;5.07;;;;;;;17.55;64.23;96312.81;5111692;27;20489;-58
2022/04/25 06:19:18;;;;;;;7.68;4.75;;;;;;;17.32;62.70;96272.91;5104349;28;20059;-58
2022/04/25 06:21:45;;;;;;;10.23;4.30;;;;;;;17.88;61.03;96305.25;5105390;27;20059;-58
2022/04/25 06:24:12;;;;;;;10.95;4.40;;;;;;;17.92;58.23;96275.16;5103607;28;20047;-62
2022/04/25 06:26:39;;;;;;;12.60;4.85;;;;;;;18.39;56.81;96312.88;5104669;28;20089;-57
2022/04/25 06:29:05;;;;;;;11.10;5.10;;;;;;;18.49;56.17;96309.00;5102904;28;20071;-57
2022/04/25 06:31:32;;;;;;;9.15;4.75;;;;;;;18.59;55.71;96302.31;5104400;28;20094;-57
2022/04/25 06:33:59;;;;;;;11.38;4.57;;;;;;;18.48;56.11;96301.81;5105399;27;20061;-65
2022/04/25 06:36:26;;;;;;;10.60;4.15;;;;;;;18.60;57.34;96278.66;5102710;28;20138;-58
2022/04/25 06:38:53;;;;;;;7.57;3.90;;;;;;;18.30;57.12;96250.97;5104086;28;20058;-62
2022/04/25 06:41:21;;;;;;;10.82;5.07;;;;;;;19.01;56.30;96300.38;5104025;27;20061;-64
2022/04/25 06:43:48;;;;;;;10.82;4.95;;;;;;;18.90;55.16;96250.19;5104217;28;20122;-56
2022/04/25 06:46:15;;;;;;;9.50;4.65;;;;;;;19.42;54.84;96309.66;5108314;27;20046;-56
2022/04/25 06:49:19;;;;;;;7.80;4.00;;;;;;;19.60;54.19;96297.09;5123363;27;20454;-56
2022/04/25 06:51:29;;;;;;;9.75;4.35;;;;;;;19.93;53.30;96276.00;5123986;27;20067;-57
2022/04/25 06:53:56;;;;;;;12.55;4.90;;;;;;;20.22;53.02;96299.16;5124057;27;20062;-57
2022/04/25 06:56:23;;;;;;;14.38;4.80;;;;;;;19.52;50.97;96170.13;5124555;27;20059;-57
2022/04/25 06:58:50;;;;;;;9.40;4.63;;;;;;;20.56;50.12;96285.16;5123897;27;20066;-63
2022/04/25 07:01:17;;;;;;;14.55;6.53;;;;;;;20.85;49.16;96327.97;5124297;27;20064;-56
2022/04/25 07:03:44;;;;;;;8.77;4.30;;;;;;;21.05;48.26;96277.81;5124810;27;20054;-56
2022/04/25 07:06:10;;;;;;;12.07;5.10;;;;;;;21.24;46.95;96285.16;5123831;27;20051;-55
2022/04/25 07:08:37;;;;;;;8.23;4.75;;;;;;;21.16;46.25;96247.22;5119419;27;20542;-65
2022/04/25 07:11:04;;;;;;;13.32;5.22;;;;;;;21.27;45.45;96227.91;5085274;28;20043;-58
2022/04/25 07:13:31;;;;;;;13.05;5.03;;;;;;;21.59;46.11;96269.72;5103491;28;20051;-57
2022/04/25 07:16:01;;;;;;;10.13;5.13;;;;;;;21.44;45.82;96234.88;5102213;28;20059;-56
2022/04/25 07:18:29;;;;;;;5.97;4.35;;;;;;;21.67;45.35;96273.84;5101456;28;20047;-64
2022/04/25 07:20:56;;;;;;;17.90;5.40;;;;;;;21.86;45.05;96281.19;5113300;28;20432;-57
2022/04/25 07:28:57;;;;;;;11.82;4.78;;;;;;;20.55;44.86;96107.09;5124165;27;20078;-63
2022/04/25 07:31:24;;;;;;;9.23;4.88;;;;;;;20.70;47.59;96265.78;5124109;27;20073;-58
2022/04/25 07:33:56;;;;;;;7.05;4.80;;;;;;;20.37;47.86;96266.53;5124316;27;20108;-62
2022/04/25 07:36:24;;;;;;;11.57;4.53;;;;;;;20.54;48.47;96265.13;5124006;27;20432;-59
2022/04/25 07:38:51;;;;;;;17.08;4.75;;;;;;;20.99;47.70;96262.75;5123856;27;20059;-65
2022/04/25 07:41:18;;;;;;;9.27;4.30;;;;;;;21.13;46.29;96262.25;5123757;27;20112;-60
2022/04/25 07:43:44;;;;;;;17.20;5.47;;;;;;;21.34;45.70;96261.44;5124154;27;20053;-72
2022/04/25 07:46:15;;;;;;;12.55;5.40;;;;;;;21.23;45.81;96251.81;5121204;27;20899;-63
2022/04/25 07:48:42;;;;;;;15.70;4.93;;;;;;;21.21;45.39;96257.91;5103452;28;20043;-57
2022/04/25 07:51:09;;;;;;;9.55;5.18;;;;;;;21.11;46.04;96230.91;5103351;28;20048;-64
2022/04/25 07:53:35;;;;;;;14.55;5.43;;;;;;;21.29;46.36;96259.22;5101879;28;20147;-58
2022/04/25 07:56:02;;;;;;;8.23;4.88;;;;;;;21.17;45.64;96237.53;5101821;28;20468;-69
2022/04/25 07:58:29;;;;;;;15.73;4.88;;;;;;;21.39;47.05;96240.31;5102126;28;20055;-68
2022/04/25 08:00:56;;;;;;;14.73;5.55;;;;;;;21.14;46.37;96147.53;5103179;28;20055;-57
2022/04/25 08:03:26;;;;;;;13.38;5.30;;;;;;;21.65;45.37;96191.00;5101362;28;20582;-57
2022/04/25 08:05:53;;;;;;;12.05;5.22;;;;;;;21.34;44.98;96176.13;5103211;28;20043;-61
2022/04/25 08:08:20;;;;;;;11.75;4.60;;;;;;;20.92;45.38;96144.72;5102848;28;20067;-59
2022/04/25 08:10:46;;;;;;;12.35;5.78;;;;;;;21.01;46.83;96234.91;5102903;28;20064;-58
2022/04/25 08:18:43;;;;;;;14.15;4.78;;;;;;;19.48;46.28;96038.19;5107085;28;20065;-68
2022/04/25 08:21:10;;;;;;;9.77;5.30;;;;;;;20.82;45.65;96207.81;5107176;28;20113;-66
2022/04/25 08:25:28;;;;;;;14.00;6.00;;;;;;;21.15;45.74;96223.09;5117280;27;20368;-58
2022/04/25 08:27:54;;;;;;;13.40;5.20;;;;;;;21.31;45.50;96228.53;5101425;28;20154;-57
2022/04/25 08:30:21;;;;;;;9.88;5.05;;;;;;;21.34;45.18;96227.63;5099935;28;20047;-58
2022/04/25 08:32:48;;;;;;;15.27;5.50;;;;;;;21.81;45.57;96219.78;5101038;28;20780;-64
2022/04/25 08:35:15;;;;;;;11.25;5.10;;;;;;;21.35;45.47;96178.50;5101250;28;20501;-68
2022/04/25 08:37:42;;;;;;;16.27;5.55;;;;;;;21.68;45.67;96223.88;5100792;28;20427;-66
2022/04/25 08:40:10;;;;;;;13.10;5.70;;;;;;;22.02;44.62;96199.13;5101123;28;20472;-65
2022/04/25 08:42:37;;;;;;;17.98;5.85;;;;;;;22.31;45.21;96213.66;5100047;28;20515;-67
2022/04/25 08:45:10;;;;;;;;;;;;;;;22.66;44.21;96214.19;5101424;28;20060;-55
2022/04/25 08:47:45;;;;;;;17.60;5.60;;;;;;;21.70;45.38;96160.19;5100845;28;19924;-56
2022/04/25 08:50:12;;;;;;;11.65;4.88;;;;;;;21.57;45.17;96204.59;5101073;28;20047;-56
2022/04/25 08:52:40;;;;;;;11.18;5.70;;;;;;;21.55;45.92;96198.63;5099414;28;20044;-62
2022/04/25 08:55:08;;;;;;;9.18;4.28;;;;;;;21.05;46.45;96141.84;5100879;28;20052;-66
2022/04/25 08:57:35;;;;;;;10.75;4.68;;;;;;;21.86;45.11;96162.75;5099122;28;20052;-57
2022/04/25 09:00:05;;;;;;;11.18;5.45;;;;;;;22.40;44.27;96195.94;5100359;28;20056;-58
2022/04/25 09:02:34;;;;;;;14.20;5.38;;;;;;;22.69;43.97;96195.50;5100873;28;20050;-56
2022/04/25 09:05:01;;;;;;;13.00;5.38;;;;;;;22.87;43.10;96173.72;5098928;28;20051;-58
2022/04/25 09:07:28;;;;;;;15.63;5.43;;;;;;;22.82;43.22;96188.47;5105594;27;20482;-58
2022/04/25 09:09:55;;;;;;;11.93;5.88;;;;;;;23.10;43.26;96141.97;5100701;28;20131;-67
2022/04/25 09:12:22;;;;;;;19.02;5.38;;;;;;;23.47;42.24;96182.25;5099056;28;20048;-57
2022/04/25 09:14:49;;;;;;;10.35;6.15;;;;;;;22.89;42.99;96102.63;5100413;28;20055;-57
2022/04/25 09:17:40;;;;;;;11.93;5.85;;;;;;;23.78;42.79;96179.94;5100618;28;20060;-68
2022/04/25 09:20:08;;;;;;;19.15;7.22;;;;;;;23.71;41.84;96149.94;5100081;28;20051;-55
2022/04/25 09:22:37;;;;;;;18.05;6.15;;;;;;;23.16;43.40;96125.13;5099972;28;20479;-56
2022/04/25 09:25:23;;;;;;;14.60;5.63;;;;;;;24.08;41.89;96175.25;5097929;28;20063;-66
2022/04/25 09:28:12;;;;;;;17.92;5.90;;;;;;;24.11;41.83;96166.59;5099406;28;20141;-68
2022/04/25 09:30:55;;;;;;;12.20;5.50;;;;;;;24.13;41.53;96161.25;5098454;28;20242;-66
2022/04/25 09:33:23;;;;;;;13.43;6.22;;;;;;;24.36;41.36;96160.47;5079753;28;20056;-55
2022/04/25 09:35:53;;;;;;;18.15;6.25;;;;;;;24.52;40.67;96130.91;5087594;28;20052;-57
2022/04/25 09:38:34;;;;;;;14.63;6.15;;;;;;;24.83;40.69;96157.59;5066140;28;20106;-64
2022/04/25 09:41:02;;;;;;;10.98;6.47;;;;;;;24.14;42.14;96145.81;5066016;28;20063;-64
2022/04/25 09:43:31;;;;;;;12.20;5.32;;;;;;;23.79;42.07;96113.59;5065973;28;20048;-66
2022/04/25 09:46:02;;;;;;;10.57;5.97;;;;;;;24.52;41.61;96153.56;5066202;28;20060;-65
2022/04/25 09:48:30;;;;;;;12.57;6.43;;;;;;;24.48;42.08;96139.63;5083589;28;20052;-56
2022/04/25 09:51:07;;;;;;;9.88;5.10;;;;;;;24.31;41.56;96115.81;5086318;28;20488;-65
2022/04/25 09:53:50;;;;;;;14.00;6.35;;;;;;;24.31;41.44;96143.38;5086555;28;20052;-56
2022/04/25 09:56:19;;;;;;;10.93;5.45;;;;;;;24.10;41.35;96116.13;5086249;28;20056;-64
2022/04/25 09:58:59;;;;;;;10.93;6.15;;;;;;;23.67;42.53;96140.06;5086021;28;20048;-67
2022/04/25 10:01:26;;;;;;;15.85;6.53;;;;;;;23.92;42.95;96139.63;5085373;28;20056;-64
2022/04/25 10:03:53;;;;;;;17.15;6.40;;;;;;;24.12;42.11;96137.03;5086024;28;20054;-56
2022/04/25 10:06:22;;;;;;;10.57;6.15;;;;;;;24.57;41.46;96139.53;5105856;28;20051;-57
2022/04/25 10:08:53;;;;;;;19.70;5.72;;;;;;;24.79;41.52;96134.34;5106623;27;20043;-56
2022/04/25 10:11:20;;;;;;;11.98;5.85;;;;;;;24.65;40.66;96132.25;5104834;28;20371;-59
2022/04/25 10:13:47;;;;;;;13.80;6.05;;;;;;;24.67;41.35;96135.41;5106248;28;20047;-56
2022/04/25 10:16:19;;;;;;;14.43;5.93;;;;;;;25.03;41.05;96129.41;5105996;28;20056;-58
2022/04/25 10:18:46;;;;;;;20.55;6.32;;;;;;;25.56;39.63;96134.22;5106351;28;20047;-65
2022/04/25 10:21:14;;;;;;;16.17;6.43;;;;;;;25.60;39.33;96083.72;5105945;28;20066;-65
2022/04/25 10:23:41;;;;;;;17.00;5.93;;;;;;;24.81;38.65;95876.84;5105596;28;20113;-63
2022/04/25 10:26:08;;;;;;;16.20;7.00;;;;;;;26.42;37.72;96123.88;5104053;28;20062;-65
2022/04/25 10:28:50;;;;;;;12.80;6.72;;;;;;;25.88;38.02;96128.25;5104439;28;20054;-65
2022/04/25 10:31:26;;;;;;;13.65;5.90;;;;;;;26.07;38.38;96111.78;5105899;28;20085;-66
2022/04/25 10:33:58;;;;;;;11.65;6.13;;;;;;;26.23;38.64;96119.75;5104590;28;20083;-64
2022/04/25 10:36:51;;;;;;;11.43;6.22;;;;;;;25.85;39.62;96117.09;5105601;28;20048;-62
2022/04/25 10:39:19;;;;;;;17.10;7.18;;;;;;;25.83;39.69;96034.53;5104391;28;20063;-64
2022/04/25 10:44:46;;;;;;;13.38;7.80;;;;;;;25.60;40.13;96106.41;5105163;28;20101;-66
2022/04/25 10:47:15;;;;;;;20.23;6.30;;;;;;;24.22;39.43;95880.19;5096018;28;20051;-56
2022/04/25 10:49:52;;;;;;;10.57;6.63;;;;;;;26.07;39.63;96103.25;5085171;28;20080;-58
2022/04/25 10:52:31;;;;;;;13.30;6.57;;;;;;;25.40;39.29;96107.13;5083243;28;20079;-56
2022/04/25 10:55:19;;;;;;;14.13;6.00;;;;;;;25.75;39.06;96101.50;5083332;28;20052;-58
2022/04/25 10:58:04;;;;;;;15.07;6.20;;;;;;;26.36;38.07;96097.47;5085004;28;20052;-60
2022/04/25 11:00:45;;;;;;;30.52;6.68;;;;;;;26.30;37.91;96085.25;5084041;28;20109;-58
2022/04/25 11:03:25;;;;;;;11.80;6.60;;;;;;;26.62;38.14;96084.09;5084737;28;20512;-58
2022/04/25 11:06:04;;;;;;;14.43;6.90;;;;;;;26.45;38.66;96086.75;5084292;28;20063;-57
2022/04/25 11:08:33;;;;;;;19.77;6.63;;;;;;;26.97;37.68;96087.59;5084755;28;20052;-59
2022/04/25 11:11:12;;;;;;;17.48;7.03;;;;;;;26.93;36.94;96007.47;5084770;28;20051;-57
2022/04/25 11:14:02;;;;;;;19.65;8.27;;;;;;;27.72;36.54;96073.03;5083039;28;20508;-65
2022/04/25 11:16:28;;;;;;;22.58;6.22;;;;;;;27.71;36.77;96072.22;5076665;28;20074;-58
2022/04/25 11:19:22;;;;;;;15.30;7.03;;;;;;;27.17;36.55;96056.28;5084855;28;20158;-57
2022/04/25 11:21:55;;;;;;;19.73;7.25;;;;;;;27.90;36.38;96073.44;5083224;28;20062;-57
2022/04/25 11:24:29;;;;;;;20.58;8.73;;;;;;;27.41;36.09;96070.22;5084307;28;20060;-58
2022/04/25 11:26:59;;;;;;;18.75;6.95;;;;;;;26.54;37.36;96082.97;5084374;28;20055;-57
2022/04/25 11:29:26;;;;;;;15.98;6.80;;;;;;;25.75;38.05;96041.91;5084084;28;20055;-59
2022/04/25 11:32:47;;;;;;;12.80;5.95;;;;;;;26.37;37.32;96074.25;5084069;28;20060;-60
2022/04/25 11:35:15;;;;;;;20.60;6.70;;;;;;;27.10;36.72;96068.09;5084388;28;20058;-66
2022/04/25 11:37:42;;;;;;;24.00;7.25;;;;;;;26.84;36.93;96015.38;5084187;28;20047;-57
2022/04/25 11:40:09;;;;;;;16.27;7.20;;;;;;;26.97;37.28;96029.97;5084633;28;20584;-57
2022/04/25 11:42:36;;;;;;;22.00;7.40;;;;;;;27.33;37.18;96058.50;5084475;28;20054;-56
2022/04/25 11:45:05;;;;;;;17.52;7.07;;;;;;;27.79;36.75;96049.78;5083873;28;20056;-57
2022/04/25 11:47:32;;;;;;;15.23;7.40;;;;;;;28.15;35.35;96049.75;5082844;28;20048;-57
2022/04/25 11:50:04;;;;;;;18.52;7.03;;;;;;;28.10;34.96;96052.56;5084425;28;20048;-57
2022/04/25 11:52:31;;;;;;;22.65;7.47;;;;;;;28.12;35.45;96047.91;5084868;28;20441;-57
2022/04/25 11:54:58;;;;;;;14.93;8.07;;;;;;;27.79;34.66;96024.94;5082674;28;20060;-56
2022/04/25 11:57:27;;;;;;;22.10;8.10;;;;;;;27.17;35.64;96042.06;5083490;28;20506;-57
2022/04/25 12:00:15;;;;;;;20.35;6.72;;;;;;;27.10;35.28;96044.56;5082248;28;20418;-56
2022/04/25 12:02:43;;;;;;;23.55;7.72;;;;;;;27.13;34.67;96003.72;5084232;28;20060;-57